createdAt,value
2022-09-26T00:01:38.517Z,10.68
2022-09-26T00:04:24.622Z,10.68
2022-09-26T00:06:55.936Z,10.67
2022-09-26T00:09:26.811Z,10.65
2022-09-26T00:11:54.489Z,10.65
2022-09-26T00:14:27.624Z,10.63
2022-09-26T00:16:55.907Z,10.63
2022-09-26T00:19:23.454Z,10.63
2022-09-26T00:21:50.675Z,10.62
2022-09-26T00:24:18.284Z,10.64
2022-09-26T00:26:45.749Z,10.65
2022-09-26T00:29:14.039Z,10.65
2022-09-26T00:31:45.968Z,10.66
2022-09-26T00:34:16.203Z,10.67
2022-09-26T00:36:46.654Z,10.67
2022-09-26T00:39:16.055Z,10.67
2022-09-26T00:41:44.085Z,10.68
2022-09-26T00:44:47.458Z,10.70
2022-09-26T00:47:23.493Z,10.71
2022-09-26T00:49:55.842Z,10.72
2022-09-26T00:52:34.448Z,10.74
2022-09-26T00:55:05.947Z,10.76
2022-09-26T00:57:41.810Z,10.79
2022-09-26T01:00:11.809Z,10.79
2022-09-26T01:02:39.924Z,10.80
2022-09-26T01:05:08.516Z,10.81
2022-09-26T01:07:36.034Z,10.81
2022-09-26T01:10:05.421Z,10.81
2022-09-26T01:12:36.518Z,10.82
2022-09-26T01:15:07.448Z,10.80
2022-09-26T01:17:37.913Z,10.81
2022-09-26T01:20:17.169Z,10.82
2022-09-26T01:22:58.974Z,10.82
2022-09-26T01:26:18.199Z,10.81
2022-09-26T01:29:29.703Z,10.84
2022-09-26T01:32:36.852Z,10.82
2022-09-26T01:35:39.132Z,10.84
2022-09-26T01:38:36.548Z,10.83
2022-09-26T01:41:36.710Z,10.84
2022-09-26T01:44:32.938Z,10.84
2022-09-26T01:47:09.352Z,10.84
2022-09-26T01:50:00.198Z,10.84
2022-09-26T01:52:45.281Z,10.85
2022-09-26T01:55:28.270Z,10.85
2022-09-26T01:58:29.020Z,10.87
2022-09-26T02:01:02.955Z,10.89
2022-09-26T02:03:38.284Z,10.89
2022-09-26T02:06:16.129Z,10.88
2022-09-26T02:09:01.662Z,10.86
2022-09-26T02:11:29.886Z,10.86
2022-09-26T02:14:25.486Z,10.87
2022-09-26T02:16:59.130Z,10.86
2022-09-26T02:19:31.231Z,10.85
2022-09-26T02:22:01.333Z,10.86
2022-09-26T02:24:29.287Z,10.85
2022-09-26T02:26:57.361Z,10.86
2022-09-26T02:29:25.399Z,10.90
2022-09-26T02:32:03.138Z,10.90
2022-09-26T02:34:30.688Z,10.90
2022-09-26T02:37:01.116Z,10.90
2022-09-26T02:39:32.333Z,10.89
2022-09-26T02:43:06.297Z,10.90
2022-09-26T02:45:52.006Z,10.91
2022-09-26T02:49:03.739Z,10.90
2022-09-26T02:51:54.352Z,10.87
2022-09-26T02:55:03.652Z,10.89
2022-09-26T02:58:05.538Z,10.89
2022-09-26T03:01:21.750Z,10.89
2022-09-26T03:04:16.171Z,10.89
2022-09-26T03:06:48.381Z,10.91
2022-09-26T03:09:18.401Z,10.89
2022-09-26T03:11:47.967Z,10.89
2022-09-26T03:14:18.011Z,10.90
2022-09-26T03:16:50.105Z,10.88
2022-09-26T03:19:47.075Z,10.84
2022-09-26T03:22:16.330Z,10.79
2022-09-26T03:24:46.221Z,10.70
2022-09-26T03:27:16.559Z,10.61
2022-09-26T03:29:46.000Z,10.53
2022-09-26T03:32:19.039Z,10.46
2022-09-26T03:34:46.399Z,10.42
2022-09-26T03:37:17.121Z,10.37
2022-09-26T03:39:45.114Z,10.32
2022-09-26T03:42:24.496Z,10.29
2022-09-26T03:44:53.219Z,10.25
2022-09-26T03:47:41.911Z,10.21
2022-09-26T03:50:09.701Z,10.20
2022-09-26T03:52:36.830Z,10.18
2022-09-26T03:55:05.195Z,10.19
2022-09-26T03:57:32.363Z,10.21
2022-09-26T04:00:12.338Z,10.22
2022-09-26T04:02:46.813Z,10.27
2022-09-26T04:05:28.560Z,10.31
2022-09-26T04:07:56.139Z,10.33
2022-09-26T04:10:24.230Z,10.34
2022-09-26T04:12:51.472Z,10.35
2022-09-26T04:15:18.737Z,10.38
2022-09-26T04:17:46.369Z,10.40
2022-09-26T04:20:14.203Z,10.40
2022-09-26T04:22:43.131Z,10.43
2022-09-26T04:25:10.315Z,10.43
2022-09-26T04:27:38.077Z,10.43
2022-09-26T04:30:06.201Z,10.45
2022-09-26T04:32:40.574Z,10.46
2022-09-26T04:35:27.969Z,10.48
2022-09-26T04:37:55.117Z,10.48
2022-09-26T04:40:22.578Z,10.47
2022-09-26T04:43:11.057Z,10.48
2022-09-26T04:45:43.252Z,10.48
2022-09-26T04:48:12.414Z,10.49
2022-09-26T04:51:13.171Z,10.50
2022-09-26T04:53:41.880Z,10.49
2022-09-26T04:56:23.568Z,10.53
2022-09-26T04:58:51.481Z,10.52
2022-09-26T05:01:21.018Z,10.50
2022-09-26T05:04:27.313Z,10.47
2022-09-26T05:06:57.846Z,10.42
2022-09-26T05:09:31.760Z,10.28
2022-09-26T05:12:07.784Z,10.15
2022-09-26T05:14:40.770Z,10.05
2022-09-26T05:17:10.135Z,9.95
2022-09-26T05:19:37.900Z,9.88
2022-09-26T05:22:34.770Z,9.82
2022-09-26T05:25:23.034Z,9.78
2022-09-26T05:27:50.692Z,9.72
2022-09-26T05:30:19.280Z,9.68
2022-09-26T05:32:48.443Z,9.64
2022-09-26T05:35:17.107Z,9.61
2022-09-26T05:37:44.941Z,9.65
2022-09-26T05:40:47.966Z,9.60
2022-09-26T05:43:15.535Z,9.55
2022-09-26T05:45:43.125Z,9.65
2022-09-26T05:48:13.070Z,9.60
2022-09-26T05:50:43.485Z,9.58
2022-09-26T05:53:11.033Z,9.57
2022-09-26T05:55:38.484Z,9.56
2022-09-26T05:58:06.354Z,9.60
2022-09-26T06:01:01.197Z,9.60
2022-09-26T06:03:29.026Z,9.62
2022-09-26T06:06:15.470Z,9.66
2022-09-26T06:08:44.175Z,9.66
2022-09-26T06:11:25.010Z,9.64
2022-09-26T06:13:52.877Z,9.66
2022-09-26T06:16:21.422Z,9.65
2022-09-26T06:18:51.351Z,9.65
2022-09-26T06:21:20.272Z,9.65
2022-09-26T06:23:51.377Z,9.66
2022-09-26T06:26:27.002Z,9.71
2022-09-26T06:28:58.033Z,9.73
2022-09-26T06:31:27.695Z,9.75
2022-09-26T06:34:09.845Z,9.78
2022-09-26T06:37:06.217Z,9.80
2022-09-26T06:39:36.973Z,9.88
2022-09-26T06:42:07.415Z,9.92
2022-09-26T06:44:50.167Z,9.95
2022-09-26T06:47:28.526Z,9.96
2022-09-26T06:50:14.636Z,10.04
2022-09-26T06:52:45.415Z,10.07
2022-09-26T06:55:15.093Z,10.08
2022-09-26T06:57:44.407Z,10.10
2022-09-26T07:00:18.426Z,10.12
2022-09-26T07:03:01.603Z,10.22
2022-09-26T07:05:56.181Z,10.20
2022-09-26T07:08:37.727Z,10.18
2022-09-26T07:11:35.302Z,10.20
2022-09-26T07:14:04.827Z,10.22
2022-09-26T07:16:32.130Z,10.29
2022-09-26T07:19:20.724Z,10.30
2022-09-26T07:22:07.393Z,10.29
2022-09-26T07:24:46.271Z,10.30
2022-09-26T07:27:14.150Z,10.40
2022-09-26T07:29:41.622Z,10.40
2022-09-26T07:32:08.902Z,10.39
2022-09-26T07:34:43.958Z,10.44
2022-09-26T07:37:12.884Z,10.47
2022-09-26T07:39:40.128Z,10.52
2022-09-26T07:42:08.663Z,10.54
2022-09-26T07:47:42.534Z,10.52
2022-09-26T07:50:29.992Z,10.52
2022-09-26T07:53:12.662Z,10.54
2022-09-26T07:56:12.165Z,10.57
2022-09-26T07:59:11.417Z,10.64
2022-09-26T08:01:57.989Z,10.67
2022-09-26T08:04:36.995Z,10.71
2022-09-26T08:07:04.184Z,10.71
2022-09-26T08:09:34.642Z,10.73
2022-09-26T08:12:20.129Z,10.76
2022-09-26T08:15:08.566Z,10.81
2022-09-26T08:17:41.834Z,10.85
2022-09-26T08:20:10.911Z,10.87
2022-09-26T08:22:38.324Z,10.90
2022-09-26T08:25:07.239Z,10.94
2022-09-26T08:27:43.556Z,10.99
2022-09-26T08:30:11.843Z,11.10
2022-09-26T08:32:39.023Z,11.13
2022-09-26T08:35:07.744Z,11.15
2022-09-26T08:37:34.853Z,11.16
2022-09-26T08:40:28.537Z,11.17
2022-09-26T08:43:41.002Z,11.18
2022-09-26T08:47:02.033Z,11.20
2022-09-26T08:50:14.398Z,11.22
2022-09-26T08:53:05.503Z,11.22
2022-09-26T08:55:44.354Z,11.27
2022-09-26T08:58:26.608Z,11.32
2022-09-26T09:01:03.383Z,11.34
2022-09-26T09:03:53.284Z,11.38
2022-09-26T09:06:21.153Z,11.43
2022-09-26T09:08:56.223Z,11.44
2022-09-26T09:12:07.062Z,11.46
2022-09-26T09:14:45.025Z,11.43
2022-09-26T09:18:27.786Z,11.34
2022-09-26T09:21:32.550Z,11.21
2022-09-26T09:24:44.075Z,11.11
2022-09-26T09:28:02.593Z,11.02
2022-09-26T09:31:01.870Z,10.94
2022-09-26T09:33:48.708Z,10.90
2022-09-26T09:36:26.018Z,10.90
2022-09-26T09:39:33.312Z,10.89
2022-09-26T09:42:34.301Z,10.91
2022-09-26T09:45:13.044Z,10.92
2022-09-26T09:47:40.334Z,10.91
2022-09-26T09:50:42.946Z,10.92
2022-09-26T09:53:32.359Z,10.93
2022-09-26T09:56:11.630Z,10.93
2022-09-26T09:59:12.283Z,10.96
2022-09-26T10:02:24.345Z,10.94
2022-09-26T10:05:31.025Z,10.93
2022-09-26T10:07:59.232Z,10.91
2022-09-26T10:11:23.070Z,10.93
2022-09-26T10:14:03.123Z,10.94
2022-09-26T10:17:18.814Z,10.95
2022-09-26T10:20:01.170Z,10.96
2022-09-26T10:22:45.132Z,11.00
2022-09-26T10:25:27.925Z,11.01
2022-09-26T10:27:59.303Z,11.00
2022-09-26T10:30:33.442Z,11.01
2022-09-26T10:33:05.677Z,10.99
2022-09-26T10:35:46.285Z,10.98
2022-09-26T10:38:27.351Z,10.99
2022-09-26T10:41:23.245Z,10.97
2022-09-26T10:43:56.155Z,10.97
2022-09-26T10:46:47.309Z,10.97
2022-09-26T10:49:54.512Z,10.95
2022-09-26T10:52:54.066Z,10.91
2022-09-26T10:55:41.363Z,10.91
2022-09-26T10:58:17.816Z,10.88
2022-09-26T11:00:51.679Z,10.90
2022-09-26T11:03:41.301Z,10.91
2022-09-26T11:06:40.752Z,10.92
2022-09-26T11:09:20.710Z,10.93
2022-09-26T11:12:27.359Z,10.96
2022-09-26T11:15:00.750Z,10.96
2022-09-26T11:17:48.329Z,10.98
2022-09-26T11:20:48.395Z,10.98
2022-09-26T11:23:51.087Z,10.99
2022-09-26T11:26:25.571Z,11.02
2022-09-26T11:29:37.131Z,11.03
2022-09-26T11:32:19.645Z,11.00
2022-09-26T11:35:29.728Z,10.97
2022-09-26T11:38:35.896Z,10.97
2022-09-26T11:41:39.463Z,10.96
2022-09-26T11:44:21.485Z,10.94
2022-09-26T11:47:54.413Z,10.93
2022-09-26T11:51:24.885Z,10.93
2022-09-26T11:54:18.923Z,10.92
2022-09-26T11:56:57.951Z,10.93
2022-09-26T12:00:12.113Z,10.90
2022-09-26T12:03:00.471Z,10.87
2022-09-26T12:05:53.487Z,10.88
2022-09-26T12:08:25.967Z,10.85
2022-09-26T12:11:38.046Z,10.79
2022-09-26T12:14:45.607Z,10.83
2022-09-26T12:17:19.590Z,10.84
2022-09-26T12:20:30.483Z,10.82
2022-09-26T12:23:19.482Z,10.85
2022-09-26T12:26:17.048Z,10.85
2022-09-26T12:29:23.758Z,10.89
2022-09-26T12:32:30.774Z,10.89
2022-09-26T12:35:22.759Z,10.93
2022-09-26T12:38:32.408Z,10.91
2022-09-26T12:41:14.247Z,10.92
2022-09-26T12:44:12.691Z,10.94
2022-09-26T12:47:00.073Z,10.95
2022-09-26T12:49:42.131Z,10.97
2022-09-26T12:52:32.787Z,10.97
2022-09-26T12:55:29.719Z,10.99
2022-09-26T12:58:25.134Z,10.94
2022-09-26T13:01:08.258Z,10.95
2022-09-26T13:04:21.014Z,10.97
2022-09-26T13:07:18.323Z,10.95
2022-09-26T13:09:58.319Z,10.98
2022-09-26T13:12:26.447Z,10.99
2022-09-26T13:15:50.236Z,10.99
2022-09-26T13:18:28.320Z,10.99
2022-09-26T13:21:06.024Z,10.98
2022-09-26T13:23:52.562Z,11.01
2022-09-26T13:26:45.168Z,11.03
2022-09-26T13:29:27.205Z,11.04
2022-09-26T13:32:22.854Z,11.06
2022-09-26T13:35:13.471Z,11.08
2022-09-26T13:37:56.659Z,11.12
2022-09-26T13:40:50.472Z,11.18
2022-09-26T13:43:56.277Z,11.20
2022-09-26T13:46:48.350Z,11.19
2022-09-26T13:49:43.590Z,11.22
2022-09-26T13:52:20.010Z,11.20
2022-09-26T13:55:10.759Z,11.22
2022-09-26T13:57:59.919Z,11.22
2022-09-26T14:00:38.861Z,11.22
2022-09-26T14:03:16.648Z,11.21
2022-09-26T14:05:47.874Z,11.21
2022-09-26T14:08:42.647Z,11.19
2022-09-26T14:11:35.164Z,11.16
2022-09-26T14:14:37.464Z,11.16
2022-09-26T14:17:43.698Z,11.13
2022-09-26T14:20:31.830Z,11.14
2022-09-26T14:23:01.065Z,11.16
2022-09-26T14:25:46.401Z,11.17
2022-09-26T14:28:35.408Z,11.18
2022-09-26T14:31:37.320Z,11.24
2022-09-26T14:34:26.858Z,11.32
2022-09-26T14:36:58.997Z,11.37
2022-09-26T14:39:39.725Z,11.38
2022-09-26T14:42:21.919Z,11.35
2022-09-26T14:45:04.921Z,11.33
2022-09-26T14:48:00.185Z,11.32
2022-09-26T14:50:34.346Z,11.30
2022-09-26T14:53:24.850Z,11.27
2022-09-26T14:56:06.060Z,11.28
2022-09-26T14:58:39.049Z,11.29
2022-09-26T15:01:30.775Z,11.29
2022-09-26T15:04:03.567Z,11.29
2022-09-26T15:06:39.308Z,11.29
2022-09-26T15:09:25.318Z,11.29
2022-09-26T15:12:08.015Z,11.29
2022-09-26T15:15:17.322Z,11.28
2022-09-26T15:17:53.778Z,11.29
2022-09-26T15:20:25.250Z,11.27
2022-09-26T15:22:57.078Z,11.27
2022-09-26T15:25:31.824Z,11.28
2022-09-26T15:28:00.111Z,11.30
2022-09-26T15:30:38.410Z,11.30
2022-09-26T15:33:07.343Z,11.32
2022-09-26T15:35:35.330Z,11.34
2022-09-26T15:38:11.946Z,11.33
2022-09-26T15:40:39.220Z,11.31
2022-09-26T15:43:09.559Z,11.32
2022-09-26T15:45:46.288Z,11.32
2022-09-26T15:48:24.943Z,11.29
2022-09-26T15:50:55.526Z,11.29
2022-09-26T15:53:42.456Z,11.29
2022-09-26T15:56:12.834Z,11.26
2022-09-26T15:58:39.879Z,11.26
2022-09-26T16:01:18.778Z,11.27
2022-09-26T16:04:13.387Z,11.26
2022-09-26T16:06:52.584Z,11.26
2022-09-26T16:09:36.495Z,11.25
2022-09-26T16:12:15.704Z,11.23
2022-09-26T16:14:58.380Z,11.20
2022-09-26T16:17:49.085Z,11.18
2022-09-26T16:20:16.429Z,11.16
2022-09-26T16:22:51.180Z,11.16
2022-09-26T16:25:20.468Z,11.16
2022-09-26T16:27:58.317Z,11.15
2022-09-26T16:30:28.411Z,11.13
2022-09-26T16:33:13.364Z,11.12
2022-09-26T16:35:47.276Z,11.11
2022-09-26T16:38:32.296Z,11.13
2022-09-26T16:44:39.583Z,11.15
2022-09-26T16:47:34.454Z,11.15
2022-09-26T16:50:27.878Z,11.15
2022-09-26T16:52:56.023Z,11.11
2022-09-26T16:55:25.368Z,11.10
2022-09-26T16:57:59.024Z,11.08
2022-09-26T17:00:52.511Z,11.07
2022-09-26T17:03:21.256Z,11.04
2022-09-26T17:05:49.882Z,11.04
2022-09-26T17:08:18.442Z,11.03
2022-09-26T17:10:46.379Z,11.04
2022-09-26T17:13:22.803Z,11.05
2022-09-26T17:15:55.467Z,11.02
2022-09-26T17:18:32.430Z,10.99
2022-09-26T17:21:02.639Z,11.00
2022-09-26T17:23:40.488Z,10.99
2022-09-26T17:26:21.525Z,10.93
2022-09-26T17:28:50.399Z,10.90
2022-09-26T17:31:20.797Z,10.90
2022-09-26T17:33:53.099Z,10.93
2022-09-26T17:36:27.920Z,10.94
2022-09-26T17:38:59.285Z,10.96
2022-09-26T17:41:28.784Z,10.98
2022-09-26T17:44:00.372Z,10.99
2022-09-26T17:46:28.261Z,11.00
2022-09-26T17:48:55.965Z,11.02
2022-09-26T17:51:23.956Z,11.02
2022-09-26T17:53:52.573Z,11.00
2022-09-26T17:56:20.481Z,10.98
2022-09-26T17:58:51.795Z,10.98
2022-09-26T18:01:34.659Z,10.97
2022-09-26T18:04:07.153Z,10.96
2022-09-26T18:06:34.691Z,10.95
2022-09-26T18:09:07.643Z,10.96
2022-09-26T18:11:36.165Z,10.95
2022-09-26T18:14:06.090Z,10.93
2022-09-26T18:16:33.278Z,10.90
2022-09-26T18:19:04.699Z,10.89
2022-09-26T18:21:35.121Z,10.88
2022-09-26T18:24:06.656Z,10.87
2022-09-26T18:26:47.478Z,10.87
2022-09-26T18:29:39.060Z,10.85
2022-09-26T18:32:14.998Z,10.85
2022-09-26T18:34:42.182Z,10.83
2022-09-26T18:37:09.305Z,10.85
2022-09-26T18:39:36.449Z,10.82
2022-09-26T18:42:09.283Z,10.79
2022-09-26T18:44:36.689Z,10.77
2022-09-26T18:47:10.837Z,10.78
2022-09-26T18:49:38.192Z,10.76
2022-09-26T18:52:12.074Z,10.75
2022-09-26T18:54:41.410Z,10.74
2022-09-26T18:57:27.143Z,10.73
2022-09-26T18:59:54.307Z,10.71
2022-09-26T19:02:26.467Z,10.70
2022-09-26T19:04:56.946Z,10.69
2022-09-26T19:07:24.589Z,10.68
2022-09-26T19:09:52.032Z,10.63
2022-09-26T19:12:19.143Z,10.63
2022-09-26T19:14:46.404Z,10.63
2022-09-26T19:17:13.707Z,10.62
2022-09-26T19:19:40.936Z,10.62
2022-09-26T19:22:15.005Z,10.61
2022-09-26T19:25:01.683Z,10.60
2022-09-26T19:27:44.947Z,10.60
2022-09-26T19:30:19.960Z,10.58
2022-09-26T19:32:56.532Z,10.56
2022-09-26T19:35:31.195Z,10.55
2022-09-26T19:38:00.349Z,10.53
2022-09-26T19:40:28.040Z,10.51
2022-09-26T19:42:57.080Z,10.48
2022-09-26T19:45:25.907Z,10.48
2022-09-26T19:47:55.782Z,10.47
2022-09-26T19:50:26.953Z,10.45
2022-09-26T19:52:57.309Z,10.47
2022-09-26T19:55:28.893Z,10.45
2022-09-26T19:58:06.831Z,10.43
2022-09-26T20:00:41.242Z,10.42
2022-09-26T20:03:39.956Z,10.40
2022-09-26T20:06:27.445Z,10.40
2022-09-26T20:09:01.702Z,10.37
2022-09-26T20:11:29.169Z,10.35
2022-09-26T20:14:15.059Z,10.31
2022-09-26T20:16:42.801Z,10.29
2022-09-26T20:19:20.050Z,10.25
2022-09-26T20:21:47.326Z,10.24
2022-09-26T20:24:18.832Z,10.22
2022-09-26T20:26:47.964Z,10.21
2022-09-26T20:29:16.417Z,10.20
2022-09-26T20:31:47.450Z,10.21
2022-09-26T20:34:17.190Z,10.19
2022-09-26T20:36:53.203Z,10.16
2022-09-26T20:39:27.554Z,10.16
2022-09-26T20:41:56.572Z,10.17
2022-09-26T20:44:29.822Z,10.15
2022-09-26T20:46:59.783Z,10.16
2022-09-26T20:49:57.378Z,10.16
2022-09-26T20:52:27.781Z,10.17
2022-09-26T20:54:56.666Z,10.16
2022-09-26T20:57:24.938Z,10.16
2022-09-26T20:59:52.434Z,10.14
2022-09-26T21:02:25.612Z,10.12
2022-09-26T21:04:53.804Z,10.10
2022-09-26T21:07:22.209Z,10.08
2022-09-26T21:09:50.295Z,10.08
2022-09-26T21:12:20.831Z,10.05
2022-09-26T21:14:48.155Z,10.04
2022-09-26T21:17:26.899Z,10.04
2022-09-26T21:19:55.565Z,10.03
2022-09-26T21:22:41.618Z,10.02
2022-09-26T21:25:17.637Z,10.02
2022-09-26T21:27:52.289Z,9.99
2022-09-26T21:30:20.458Z,9.95
2022-09-26T21:32:56.101Z,9.90
2022-09-26T21:35:28.873Z,9.85
2022-09-26T21:37:57.780Z,9.80
2022-09-26T21:40:29.869Z,9.76
2022-09-26T21:43:04.683Z,9.68
2022-09-26T21:45:31.797Z,9.68
2022-09-26T21:47:59.010Z,9.65
2022-09-26T21:50:29.137Z,9.63
2022-09-26T21:53:05.691Z,9.61
2022-09-26T21:55:40.031Z,9.60
2022-09-26T21:58:15.028Z,9.55
2022-09-26T22:00:42.193Z,9.55
2022-09-26T22:03:09.470Z,9.51
2022-09-26T22:05:36.573Z,9.50
2022-09-26T22:08:03.870Z,9.49
2022-09-26T22:10:31.256Z,9.49
2022-09-26T22:12:58.388Z,9.51
2022-09-26T22:15:25.596Z,9.51
2022-09-26T22:17:53.356Z,9.52
2022-09-26T22:20:22.303Z,9.51
2022-09-26T22:22:49.732Z,9.49
2022-09-26T22:25:16.906Z,9.49
2022-09-26T22:27:44.098Z,9.48
2022-09-26T22:30:12.373Z,9.47
2022-09-26T22:32:40.041Z,9.45
2022-09-26T22:35:07.714Z,9.41
2022-09-26T22:37:34.976Z,9.41
2022-09-26T22:40:03.170Z,9.41
2022-09-26T22:42:30.373Z,9.42
2022-09-26T22:44:58.119Z,9.41
2022-09-26T22:47:25.243Z,9.38
2022-09-26T22:49:52.358Z,9.35
2022-09-26T22:52:19.462Z,9.30
2022-09-26T22:54:46.641Z,9.26
2022-09-26T22:57:13.875Z,9.23
2022-09-26T22:59:41.020Z,9.22
2022-09-26T23:02:08.215Z,9.18
2022-09-26T23:04:47.319Z,9.17
2022-09-26T23:07:18.980Z,9.13
2022-09-26T23:09:47.948Z,9.10
2022-09-26T23:12:15.221Z,9.06
2022-09-26T23:14:42.366Z,9.08
2022-09-26T23:17:10.935Z,9.06
2022-09-26T23:19:38.137Z,9.04
2022-09-26T23:22:05.318Z,9.05
2022-09-26T23:24:32.456Z,9.05
2022-09-26T23:27:00.019Z,9.02
2022-09-26T23:29:27.193Z,9.02
2022-09-26T23:31:54.895Z,9.00
2022-09-26T23:34:22.129Z,9.01
2022-09-26T23:36:49.278Z,9.01
2022-09-26T23:39:16.546Z,9.00
2022-09-26T23:41:43.784Z,8.99
2022-09-26T23:44:10.909Z,8.97
2022-09-26T23:46:38.994Z,8.96
2022-09-26T23:49:06.257Z,8.97
2022-09-26T23:51:33.615Z,8.97
2022-09-26T23:54:01.043Z,8.96
2022-09-26T23:56:28.223Z,8.98
2022-09-26T23:58:58.294Z,8.98
